Time;durP1;ratioP1;P1;durP2;ratioP2;P2;SDS_P1;SDS_P2;PMS_P1;PMS_P2;Temp;Humidity;BMP_temperature;BMP_pressure;BME280_temperature;BME280_humidity;BME280_pressure;Samples;Min_cycle;Max_cycle;Signal;HPM_P1;HPM_P2
2024/01/20 00:00:47;;;;;;;8.83;7.80;;;;;;;-3.28;100.00;99689.94;4167311;28;20204;-52
2024/01/20 00:02:48;;;;;;;8.27;7.67;;;;;;;-3.32;100.00;99694.72;4170286;28;20685;-52
2024/01/20 00:04:51;;;;;;;9.13;8.43;;;;;;;-3.34;100.00;99696.66;4185848;28;20233;-53
2024/01/20 00:06:53;;;;;;;8.67;7.70;;;;;;;-3.23;100.00;99701.06;4188420;28;20211;-56
2024/01/20 00:08:55;;;;;;;8.50;7.90;;;;;;;-3.22;100.00;99716.13;4202873;28;20206;-53
2024/01/20 00:10:57;;;;;;;9.20;8.40;;;;;;;-3.10;100.00;99707.03;4170024;28;20217;-55
2024/01/20 00:12:59;;;;;;;9.13;8.43;;;;;;;-3.24;100.00;99712.75;4187561;28;20227;-55
2024/01/20 00:15:01;;;;;;;8.13;7.67;;;;;;;-3.23;100.00;99725.13;4191080;28;20319;-53
2024/01/20 00:17:04;;;;;;;9.67;7.93;;;;;;;-3.28;100.00;99727.38;4188866;28;20207;-54
2024/01/20 00:19:20;;;;;;;8.93;8.20;;;;;;;-3.20;100.00;99724.88;4203029;28;20390;-52
2024/01/20 00:21:23;;;;;;;8.33;7.73;;;;;;;-3.30;100.00;99729.31;4202661;28;20245;-52
2024/01/20 00:23:25;;;;;;;5.50;5.10;;;;;;;-3.37;100.00;99728.16;4186654;28;20211;-53
2024/01/20 00:25:27;;;;;;;6.87;6.27;;;;;;;-3.33;100.00;99724.25;4187029;28;20298;-54
2024/01/20 00:27:30;;;;;;;9.67;7.97;;;;;;;-3.41;100.00;99726.75;4186778;28;20226;-53
2024/01/20 00:29:32;;;;;;;6.13;5.67;;;;;;;-3.43;100.00;99726.03;4191129;28;20211;-55
2024/01/20 00:31:33;;;;;;;6.47;6.07;;;;;;;-3.50;100.00;99733.75;4185730;28;20224;-53
2024/01/20 00:33:35;;;;;;;10.00;8.30;;;;;;;-3.95;100.00;99731.50;4189928;28;20199;-52
2024/01/20 00:35:42;;;;;;;8.37;7.67;;;;;;;-3.99;100.00;99725.53;4189061;28;20257;-52
2024/01/20 00:37:44;;;;;;;9.73;8.47;;;;;;;-4.05;100.00;99723.41;4187443;28;20203;-53
2024/01/20 00:39:46;;;;;;;7.80;7.33;;;;;;;-3.97;100.00;99722.72;4189121;28;20708;-55
2024/01/20 00:41:48;;;;;;;8.33;7.63;;;;;;;-4.15;100.00;99713.63;4186082;28;20230;-52
2024/01/20 00:43:50;;;;;;;12.77;8.80;;;;;;;-4.19;100.00;99718.34;4189229;28;20218;-54
2024/01/20 00:45:51;;;;;;;8.03;7.40;;;;;;;-4.13;100.00;99714.31;4185443;28;20610;-53
2024/01/20 00:47:53;;;;;;;10.50;9.70;;;;;;;-4.08;100.00;99714.78;4202921;28;20206;-54
2024/01/20 00:49:55;;;;;;;9.00;8.37;;;;;;;-3.88;100.00;99708.63;4184000;28;20199;-52
2024/01/20 00:51:57;;;;;;;9.23;8.47;;;;;;;-3.79;100.00;99708.69;4175288;28;20282;-51
2024/01/20 00:53:58;;;;;;;8.53;7.93;;;;;;;-3.73;100.00;99712.63;4190227;28;20204;-52
2024/01/20 00:56:00;;;;;;;8.67;8.17;;;;;;;-3.64;100.00;99720.72;4187330;28;20230;-52
2024/01/20 00:58:02;;;;;;;8.67;7.20;;;;;;;-3.56;100.00;99717.38;4183930;28;20207;-52
2024/01/20 01:00:08;;;;;;;10.60;9.40;;;;;;;-3.68;100.00;99729.16;4187159;28;20203;-53
2024/01/20 01:02:11;;;;;;;8.77;7.63;;;;;;;-3.72;100.00;99717.00;4186687;28;20753;-57
2024/01/20 01:04:13;;;;;;;10.57;9.53;;;;;;;-3.86;100.00;99725.34;4183405;28;20843;-52
2024/01/20 01:06:14;;;;;;;9.87;9.07;;;;;;;-3.82;100.00;99730.31;4187490;28;20200;-52
2024/01/20 01:08:16;;;;;;;10.77;10.00;;;;;;;-3.70;100.00;99731.06;4187517;28;20207;-54
2024/01/20 01:10:18;;;;;;;8.37;7.67;;;;;;;-3.55;100.00;99735.97;4186878;28;20208;-55
2024/01/20 01:12:20;;;;;;;13.53;7.53;;;;;;;-3.56;100.00;99736.09;4188613;28;20231;-53
2024/01/20 01:14:22;;;;;;;7.30;6.80;;;;;;;-3.45;100.00;99730.66;4187406;28;20212;-52
2024/01/20 01:16:23;;;;;;;9.50;8.63;;;;;;;-3.41;100.00;99742.81;4188466;28;20228;-52
2024/01/20 01:18:25;;;;;;;9.03;8.17;;;;;;;-3.44;100.00;99743.06;4199913;28;20206;-52
2024/01/20 01:20:27;;;;;;;9.37;8.50;;;;;;;-3.52;100.00;99741.06;4201671;28;20678;-52
2024/01/20 01:22:29;;;;;;;8.90;8.20;;;;;;;-3.52;100.00;99740.19;4185544;28;20238;-53
2024/01/20 01:24:30;;;;;;;9.03;8.13;;;;;;;-3.51;100.00;99737.41;4187516;28;20207;-52
2024/01/20 01:26:32;;;;;;;7.40;6.70;;;;;;;-3.57;100.00;99743.28;4186361;28;20791;-53
2024/01/20 01:28:34;;;;;;;9.27;8.07;;;;;;;-3.59;100.00;99739.91;4199640;28;20684;-53
2024/01/20 01:30:36;;;;;;;8.50;7.83;;;;;;;-3.58;100.00;99740.72;4203882;28;20660;-52
2024/01/20 01:32:38;;;;;;;6.60;5.90;;;;;;;-3.59;100.00;99749.72;4180858;28;20234;-54
2024/01/20 01:34:39;;;;;;;7.97;6.07;;;;;;;-3.81;100.00;99744.53;4200151;28;21024;-55
2024/01/20 01:36:41;;;;;;;5.63;5.33;;;;;;;-3.65;100.00;99747.59;4187049;28;20223;-53
2024/01/20 01:38:43;;;;;;;8.03;7.43;;;;;;;-3.85;100.00;99753.78;4185398;28;20211;-53
2024/01/20 01:40:45;;;;;;;7.80;7.37;;;;;;;-3.80;100.00;99751.56;4167125;28;20330;-53
2024/01/20 01:42:46;;;;;;;6.67;5.73;;;;;;;-3.83;100.00;99757.16;4166961;28;20319;-56
2024/01/20 01:44:48;;;;;;;9.10;8.33;;;;;;;-3.95;100.00;99739.50;4182840;28;20266;-54
2024/01/20 01:46:50;;;;;;;6.00;5.43;;;;;;;-3.85;100.00;99743.94;4187619;28;20487;-53
2024/01/20 01:48:52;;;;;;;6.13;5.53;;;;;;;-3.73;100.00;99747.41;4182908;28;20219;-54
2024/01/20 01:50:56;;;;;;;7.27;6.57;;;;;;;-3.74;100.00;99748.38;4193824;28;20211;-53
2024/01/20 01:52:58;;;;;;;7.10;6.50;;;;;;;-3.72;100.00;99739.25;4192652;28;20237;-52
2024/01/20 01:55:00;;;;;;;7.83;7.23;;;;;;;-3.87;100.00;99745.88;4193628;28;20212;-52
2024/01/20 01:57:03;;;;;;;7.27;6.63;;;;;;;-4.02;100.00;99735.63;4176323;28;20220;-54
2024/01/20 01:59:04;;;;;;;9.23;8.33;;;;;;;-4.25;100.00;99739.38;4174025;28;20243;-55
2024/01/20 02:01:06;;;;;;;9.17;7.43;;;;;;;-4.26;100.00;99740.38;4197513;28;20220;-54
2024/01/20 02:03:09;;;;;;;7.57;7.03;;;;;;;-4.16;100.00;99735.94;4182630;28;20314;-52
2024/01/20 02:05:11;;;;;;;8.73;8.03;;;;;;;-3.99;100.00;99741.56;4183816;28;20235;-54
2024/01/20 02:07:15;;;;;;;7.47;6.87;;;;;;;-3.98;100.00;99742.41;4192877;28;20689;-53
2024/01/20 02:09:17;;;;;;;11.97;11.10;;;;;;;-3.88;100.00;99732.66;4183802;28;20233;-54
2024/01/20 02:11:19;;;;;;;8.77;7.97;;;;;;;-3.86;100.00;99731.53;4186533;28;20216;-54
2024/01/20 02:13:21;;;;;;;7.20;6.90;;;;;;;-3.76;100.00;99726.25;4185092;28;20208;-51
2024/01/20 02:15:23;;;;;;;9.33;8.53;;;;;;;-3.78;100.00;99728.22;4201746;28;20207;-54
2024/01/20 02:17:25;;;;;;;5.97;5.57;;;;;;;-3.71;100.00;99734.72;4187289;28;20205;-55
2024/01/20 02:19:27;;;;;;;9.00;8.30;;;;;;;-3.80;100.00;99735.53;4180971;28;20206;-55
2024/01/20 02:21:29;;;;;;;8.43;7.83;;;;;;;-3.95;100.00;99737.66;4186896;28;20208;-52
2024/01/20 02:23:36;;;;;;;8.20;7.60;;;;;;;-4.27;100.00;99741.34;4183740;28;20214;-54
2024/01/20 02:25:38;;;;;;;8.83;7.90;;;;;;;-4.26;100.00;99748.38;4182803;28;20203;-53
2024/01/20 02:27:40;;;;;;;8.93;7.73;;;;;;;-4.35;100.00;99749.16;4201889;28;20656;-53
2024/01/20 02:29:42;;;;;;;7.63;6.87;;;;;;;-4.40;100.00;99762.03;4179250;28;20832;-52
2024/01/20 02:31:43;;;;;;;11.03;9.17;;;;;;;-4.33;100.00;99771.25;4199378;28;20701;-53
2024/01/20 02:33:45;;;;;;;7.20;6.60;;;;;;;-4.43;100.00;99772.94;4168916;28;20234;-54
2024/01/20 02:35:47;;;;;;;9.57;9.10;;;;;;;-4.45;100.00;99774.91;4187020;28;20230;-52
2024/01/20 02:37:49;;;;;;;7.63;7.13;;;;;;;-4.48;100.00;99780.50;4185969;28;20711;-52
2024/01/20 02:39:51;;;;;;;5.67;4.77;;;;;;;-4.49;100.00;99779.66;4188012;28;20268;-52
2024/01/20 02:41:52;;;;;;;7.17;6.47;;;;;;;-4.68;100.00;99783.94;4187095;28;20223;-53
2024/01/20 02:43:55;;;;;;;9.00;8.30;;;;;;;-4.58;100.00;99783.09;4183288;28;20239;-53
2024/01/20 02:45:56;;;;;;;5.87;5.50;;;;;;;-4.65;100.00;99773.00;4187292;28;20200;-52
2024/01/20 02:47:58;;;;;;;9.23;8.57;;;;;;;-4.70;100.00;99776.06;4168611;28;20201;-52
2024/01/20 02:50:00;;;;;;;7.73;7.33;;;;;;;-4.85;100.00;99765.75;4181243;28;20208;-52
2024/01/20 02:52:02;;;;;;;7.17;6.60;;;;;;;-4.87;100.00;99771.22;4186115;28;20286;-53
2024/01/20 02:54:04;;;;;;;16.60;9.63;;;;;;;-4.99;100.00;99782.03;4184086;28;20941;-52
2024/01/20 02:56:06;;;;;;;8.03;7.43;;;;;;;-4.83;100.00;99774.47;4183187;28;20249;-55
2024/01/20 02:58:08;;;;;;;8.20;7.60;;;;;;;-4.89;100.00;99774.97;4185514;28;20259;-51
2024/01/20 03:00:10;;;;;;;9.53;9.00;;;;;;;-4.87;100.00;99789.06;4184165;28;20254;-51
2024/01/20 03:02:11;;;;;;;6.60;6.20;;;;;;;-4.72;100.00;99788.69;4185225;28;20274;-51
2024/01/20 03:04:16;;;;;;;5.73;5.30;;;;;;;-4.65;100.00;99789.03;4200082;28;20214;-51
2024/01/20 03:06:18;;;;;;;7.37;6.97;;;;;;;-4.48;100.00;99784.00;4188292;28;20204;-51
2024/01/20 03:08:20;;;;;;;8.37;7.77;;;;;;;-4.45;100.00;99780.25;4184371;28;20251;-51
2024/01/20 03:10:21;;;;;;;7.00;6.47;;;;;;;-4.40;100.00;99794.09;4182902;28;21134;-51
2024/01/20 03:12:23;;;;;;;7.33;6.77;;;;;;;-4.46;100.00;99797.25;4187646;28;20737;-51
2024/01/20 03:14:25;;;;;;;8.00;7.43;;;;;;;-4.76;100.00;99781.03;4185716;28;20238;-53
2024/01/20 03:16:27;;;;;;;8.60;7.73;;;;;;;-4.96;100.00;99789.78;4169803;28;20231;-53
2024/01/20 03:18:28;;;;;;;11.07;7.67;;;;;;;-4.92;100.00;99783.25;4188283;28;20209;-52
2024/01/20 03:20:30;;;;;;;7.07;6.37;;;;;;;-4.84;100.00;99768.31;4185532;28;20290;-53
2024/01/20 03:22:32;;;;;;;7.80;7.33;;;;;;;-4.68;100.00;99776.78;4181768;28;20240;-53
2024/01/20 03:24:34;;;;;;;8.03;6.80;;;;;;;-4.69;100.00;99771.56;4184047;28;20208;-53
2024/01/20 03:26:35;;;;;;;18.83;9.00;;;;;;;-4.65;100.00;99773.00;4181559;28;20211;-52
2024/01/20 03:28:38;;;;;;;9.20;8.60;;;;;;;-4.58;100.00;99780.41;4185350;28;20260;-52
2024/01/20 03:30:39;;;;;;;6.23;5.57;;;;;;;-4.79;100.00;99778.63;4187351;28;20801;-52
2024/01/20 03:32:41;;;;;;;6.80;6.40;;;;;;;-4.94;100.00;99793.19;4186470;28;20329;-51
2024/01/20 03:34:43;;;;;;;8.73;8.07;;;;;;;-4.96;100.00;99800.44;4200567;28;20238;-53
2024/01/20 03:36:46;;;;;;;6.30;5.67;;;;;;;-5.04;100.00;99797.56;4184734;28;20253;-53
2024/01/20 03:38:47;;;;;;;9.03;8.33;;;;;;;-5.16;100.00;99803.84;4199337;28;20202;-52
2024/01/20 03:40:49;;;;;;;13.60;8.90;;;;;;;-4.85;100.00;99803.13;4183464;28;20213;-51
2024/01/20 03:42:51;;;;;;;10.53;8.97;;;;;;;-4.78;100.00;99804.34;4169095;28;20262;-52
2024/01/20 03:44:52;;;;;;;7.97;7.07;;;;;;;-4.70;100.00;99801.88;4185001;28;20268;-52
2024/01/20 03:46:54;;;;;;;12.37;10.67;;;;;;;-4.65;100.00;99808.59;4184426;28;20195;-52
2024/01/20 03:48:56;;;;;;;8.63;8.10;;;;;;;-4.56;100.00;99804.28;4169903;28;20207;-51
2024/01/20 03:50:58;;;;;;;8.20;7.57;;;;;;;-4.50;100.00;99814.47;4182612;28;20203;-52
2024/01/20 03:53:00;;;;;;;7.60;7.00;;;;;;;-4.47;100.00;99809.75;4187622;28;20227;-52
2024/01/20 03:55:02;;;;;;;7.80;7.00;;;;;;;-4.36;100.00;99812.41;4185064;28;20266;-51
2024/01/20 03:57:04;;;;;;;8.43;7.00;;;;;;;-4.42;100.00;99812.03;4183120;28;20253;-54
2024/01/20 03:59:06;;;;;;;6.70;6.30;;;;;;;-4.30;100.00;99806.56;4187278;28;20662;-54
2024/01/20 04:01:07;;;;;;;8.67;7.87;;;;;;;-4.25;100.00;99798.16;4186412;28;20207;-52
2024/01/20 04:03:09;;;;;;;7.63;7.17;;;;;;;-4.31;100.00;99809.34;4188828;28;20231;-52
2024/01/20 04:05:11;;;;;;;7.93;7.13;;;;;;;-4.30;100.00;99803.03;4185009;28;20638;-53
2024/01/20 04:07:13;;;;;;;7.47;6.97;;;;;;;-4.33;100.00;99811.31;4183799;28;20284;-52
2024/01/20 04:09:14;;;;;;;8.40;7.77;;;;;;;-4.28;100.00;99809.09;4185258;28;20212;-52
2024/01/20 04:11:16;;;;;;;9.50;8.60;;;;;;;-4.31;100.00;99820.03;4185346;28;20298;-54
2024/01/20 04:13:19;;;;;;;9.13;7.93;;;;;;;-4.19;100.00;99813.69;4199331;28;20215;-52
2024/01/20 04:15:21;;;;;;;9.03;8.33;;;;;;;-4.27;100.00;99819.66;4199423;28;20203;-55
2024/01/20 04:17:23;;;;;;;8.00;7.40;;;;;;;-4.28;100.00;99815.28;4186845;28;20228;-54
2024/01/20 04:19:24;;;;;;;7.87;7.37;;;;;;;-4.21;100.00;99819.16;4187653;28;20212;-52
2024/01/20 04:21:26;;;;;;;7.57;7.03;;;;;;;-4.14;100.00;99819.50;4198810;28;20256;-51
2024/01/20 04:23:28;;;;;;;14.03;8.17;;;;;;;-4.25;100.00;99820.38;4187799;28;20214;-51
2024/01/20 04:25:30;;;;;;;8.50;7.83;;;;;;;-4.00;100.00;99819.22;4190788;28;20223;-51
2024/01/20 04:27:33;;;;;;;6.93;6.47;;;;;;;-4.23;100.00;99817.56;4184620;28;20203;-51
2024/01/20 04:29:35;;;;;;;9.13;8.40;;;;;;;-4.28;100.00;99819.78;4183141;28;20274;-50
2024/01/20 04:31:37;;;;;;;7.73;7.33;;;;;;;-4.20;100.00;99828.03;4198063;28;20227;-51
2024/01/20 04:33:40;;;;;;;7.03;6.53;;;;;;;-4.47;100.00;99819.59;4171869;28;20208;-51
2024/01/20 04:35:42;;;;;;;7.03;6.43;;;;;;;-4.62;100.00;99826.13;4189844;28;20640;-51
2024/01/20 04:37:44;;;;;;;7.70;6.83;;;;;;;-4.44;100.00;99820.19;4189506;28;20224;-50
2024/01/20 04:39:46;;;;;;;7.70;7.00;;;;;;;-4.88;100.00;99824.72;4186487;28;20222;-51
2024/01/20 04:41:47;;;;;;;8.73;8.23;;;;;;;-4.74;100.00;99829.81;4181318;28;20760;-51
2024/01/20 04:43:49;;;;;;;8.27;7.67;;;;;;;-4.65;100.00;99826.41;4184207;28;20192;-51
2024/01/20 04:45:51;;;;;;;7.57;6.97;;;;;;;-4.96;100.00;99828.00;4190379;28;20213;-50
2024/01/20 04:47:53;;;;;;;7.60;7.17;;;;;;;-5.18;100.00;99828.00;4192935;28;20600;-51
2024/01/20 04:49:54;;;;;;;6.83;6.50;;;;;;;-4.99;100.00;99822.88;4190550;28;20653;-50
2024/01/20 04:52:01;;;;;;;9.37;8.67;;;;;;;-5.12;100.00;99832.84;4186505;28;20277;-51
2024/01/20 04:54:03;;;;;;;10.20;9.57;;;;;;;-4.94;100.00;99828.72;4191263;28;20200;-51
2024/01/20 04:56:05;;;;;;;8.77;7.90;;;;;;;-4.95;100.00;99834.16;4191897;28;20267;-52
2024/01/20 04:58:07;;;;;;;8.47;6.07;;;;;;;-4.91;100.00;99828.50;4192369;28;20199;-51
2024/01/20 05:00:09;;;;;;;6.73;6.13;;;;;;;-5.11;100.00;99839.03;4194557;28;20253;-51
2024/01/20 05:02:11;;;;;;;5.83;5.53;;;;;;;-5.08;100.00;99836.13;4186967;28;20763;-52
2024/01/20 05:04:12;;;;;;;6.53;6.00;;;;;;;-5.28;100.00;99837.66;4187421;28;20208;-50
2024/01/20 05:06:14;;;;;;;6.93;6.50;;;;;;;-5.21;100.00;99840.72;4184579;28;20207;-51
2024/01/20 05:08:16;;;;;;;7.83;7.40;;;;;;;-5.07;100.00;99835.97;4185530;28;21043;-52
2024/01/20 05:10:19;;;;;;;5.63;5.33;;;;;;;-5.02;100.00;99854.28;4202059;28;20206;-52
2024/01/20 05:12:20;;;;;;;10.13;9.40;;;;;;;-4.98;100.00;99845.09;4191302;28;20364;-52
2024/01/20 05:14:22;;;;;;;5.90;5.47;;;;;;;-4.98;100.00;99856.63;4195811;28;20207;-51
2024/01/20 05:16:24;;;;;;;8.93;7.37;;;;;;;-5.19;100.00;99847.59;4194439;28;20834;-51
2024/01/20 05:18:26;;;;;;;7.13;6.63;;;;;;;-5.37;100.00;99848.19;4189182;28;20212;-51
2024/01/20 05:20:28;;;;;;;5.77;5.43;;;;;;;-5.25;100.00;99844.59;4186799;28;20665;-52
2024/01/20 05:22:29;;;;;;;7.13;6.63;;;;;;;-5.39;100.00;99842.13;4188278;28;20223;-51
2024/01/20 05:24:31;;;;;;;7.07;6.67;;;;;;;-5.47;100.00;99841.88;4188280;28;20207;-52
2024/01/20 05:26:33;;;;;;;6.57;6.20;;;;;;;-5.47;100.00;99841.88;4184086;28;20596;-51
2024/01/20 05:28:35;;;;;;;8.20;7.33;;;;;;;-5.40;100.00;99843.09;4187200;28;20904;-52
2024/01/20 05:30:36;;;;;;;8.27;7.63;;;;;;;-5.21;100.00;99848.72;4169939;28;20239;-52
2024/01/20 05:32:41;;;;;;;12.40;8.67;;;;;;;-5.51;100.00;99851.06;4185411;28;20310;-52
2024/01/20 05:34:43;;;;;;;6.40;5.73;;;;;;;-5.57;100.00;99854.19;4188025;28;20208;-53
2024/01/20 05:36:46;;;;;;;7.33;6.73;;;;;;;-5.69;100.00;99857.78;4201194;28;20257;-52
2024/01/20 05:38:47;;;;;;;5.93;5.53;;;;;;;-5.50;100.00;99866.09;4187797;28;20204;-51
2024/01/20 05:40:49;;;;;;;7.37;6.87;;;;;;;-5.42;100.00;99865.50;4201665;28;20269;-52
2024/01/20 05:42:51;;;;;;;5.63;5.23;;;;;;;-5.43;100.00;99869.16;4193714;28;20483;-53
2024/01/20 05:44:53;;;;;;;9.73;8.60;;;;;;;-5.34;100.00;99874.63;4190370;28;20548;-51
2024/01/20 05:46:54;;;;;;;6.30;5.97;;;;;;;-5.40;100.00;99880.44;4201296;28;20213;-51
2024/01/20 05:48:56;;;;;;;7.77;7.27;;;;;;;-5.53;100.00;99884.13;4169007;28;20212;-51
2024/01/20 05:50:58;;;;;;;11.43;9.10;;;;;;;-5.47;100.00;99889.00;4187219;28;20306;-52
2024/01/20 05:53:00;;;;;;;8.00;6.77;;;;;;;-5.82;100.00;99893.50;4185312;28;20764;-50
2024/01/20 05:55:01;;;;;;;8.67;5.17;;;;;;;-5.71;100.00;99890.84;4199777;28;20688;-52
2024/01/20 05:57:03;;;;;;;8.70;7.40;;;;;;;-5.82;100.00;99898.84;4187318;28;20297;-51
2024/01/20 05:59:05;;;;;;;7.23;6.57;;;;;;;-5.79;100.00;99894.09;4190606;28;20219;-50
2024/01/20 06:01:09;;;;;;;9.53;8.83;;;;;;;-5.69;100.00;99891.59;4191075;28;20279;-51
2024/01/20 06:03:11;;;;;;;8.10;7.70;;;;;;;-6.00;100.00;99897.53;4186761;28;20215;-51
2024/01/20 06:05:13;;;;;;;8.10;7.63;;;;;;;-5.83;100.00;99892.66;4185141;28;20713;-50
2024/01/20 06:07:15;;;;;;;7.67;6.40;;;;;;;-5.63;100.00;99894.63;4186226;28;20295;-51
2024/01/20 06:09:17;;;;;;;7.30;6.80;;;;;;;-5.82;100.00;99898.84;4199119;28;20630;-52
2024/01/20 06:11:19;;;;;;;11.50;10.47;;;;;;;-5.52;100.00;99901.81;4184801;28;20302;-51
2024/01/20 06:13:21;;;;;;;6.73;6.30;;;;;;;-5.69;100.00;99913.75;4188071;28;20264;-51
2024/01/20 06:15:22;;;;;;;12.30;8.37;;;;;;;-5.56;100.00;99911.03;4199015;28;20597;-51
2024/01/20 06:17:24;;;;;;;10.23;7.93;;;;;;;-5.55;100.00;99907.41;4165982;28;22040;-51
2024/01/20 06:19:26;;;;;;;7.63;6.63;;;;;;;-5.54;100.00;99923.28;4186778;28;20294;-52
2024/01/20 06:21:28;;;;;;;8.40;7.73;;;;;;;-5.58;100.00;99923.59;4183558;28;20203;-51
2024/01/20 06:23:29;;;;;;;7.43;7.03;;;;;;;-5.64;100.00;99924.94;4184101;28;20211;-52
2024/01/20 06:25:31;;;;;;;8.00;7.37;;;;;;;-5.51;100.00;99923.03;4188323;28;20207;-51
2024/01/20 06:27:33;;;;;;;7.47;7.07;;;;;;;-5.39;100.00;99924.78;4185543;28;20210;-51
2024/01/20 06:29:40;;;;;;;7.50;7.00;;;;;;;-5.36;100.00;99929.88;4186762;28;20298;-51
2024/01/20 06:31:42;;;;;;;7.57;6.17;;;;;;;-5.35;100.00;99928.91;4185907;28;20266;-52
2024/01/20 06:33:43;;;;;;;9.63;8.83;;;;;;;-5.39;100.00;99935.47;4184553;28;20199;-51
2024/01/20 06:35:45;;;;;;;6.33;5.83;;;;;;;-5.39;100.00;99940.78;4184663;28;20529;-51
2024/01/20 06:37:47;;;;;;;7.80;6.07;;;;;;;-5.52;100.00;99937.34;4182839;28;20227;-52
2024/01/20 06:39:49;;;;;;;9.67;8.13;;;;;;;-5.46;100.00;99939.56;4183762;28;20200;-51
2024/01/20 06:41:50;;;;;;;6.67;6.10;;;;;;;-5.38;100.00;99942.47;4198959;28;20230;-52
2024/01/20 06:43:52;;;;;;;7.50;6.90;;;;;;;-5.45;100.00;99945.72;4178538;28;20298;-51
2024/01/20 06:45:54;;;;;;;5.83;5.63;;;;;;;-5.64;100.00;99938.25;4184132;28;21728;-51
2024/01/20 06:47:56;;;;;;;6.53;6.17;;;;;;;-5.76;100.00;99946.31;4183633;28;20204;-51
2024/01/20 06:49:58;;;;;;;7.53;6.83;;;;;;;-5.71;100.00;99939.69;4200535;28;20203;-50
2024/01/20 06:51:59;;;;;;;5.37;5.07;;;;;;;-5.55;100.00;99939.38;4197203;28;20238;-51
2024/01/20 06:54:01;;;;;;;6.33;5.93;;;;;;;-5.48;100.00;99940.63;4168710;28;21023;-51
2024/01/20 06:56:04;;;;;;;10.07;9.27;;;;;;;-5.53;100.00;99945.44;4183305;28;20244;-51
2024/01/20 06:58:05;;;;;;;8.57;8.03;;;;;;;-5.60;100.00;99953.06;4185791;28;21355;-54
2024/01/20 07:00:08;;;;;;;10.40;7.03;;;;;;;-5.58;100.00;99950.25;4181983;28;20204;-53
2024/01/20 07:02:10;;;;;;;8.07;7.63;;;;;;;-5.82;100.00;99958.28;4181149;28;20315;-52
2024/01/20 07:04:12;;;;;;;8.00;7.33;;;;;;;-5.70;100.00;99961.84;4185344;28;20216;-54
2024/01/20 07:06:14;;;;;;;9.13;8.43;;;;;;;-6.01;100.00;99957.97;4184912;28;20208;-52
2024/01/20 07:08:16;;;;;;;8.53;7.93;;;;;;;-5.94;100.00;99955.69;4185051;28;20200;-52
2024/01/20 07:10:17;;;;;;;7.47;6.87;;;;;;;-6.18;100.00;99955.66;4183746;28;20210;-53
2024/01/20 07:12:21;;;;;;;9.03;5.53;;;;;;;-6.21;100.00;99952.38;4162375;28;20271;-52
2024/01/20 07:14:24;;;;;;;5.33;5.03;;;;;;;-6.32;100.00;99952.28;4179912;28;20217;-52
2024/01/20 07:16:26;;;;;;;7.50;7.07;;;;;;;-6.38;100.00;99953.56;4182577;28;20681;-54
2024/01/20 07:18:28;;;;;;;6.33;6.03;;;;;;;-6.42;100.00;99967.22;4183854;28;20227;-52
2024/01/20 07:20:30;;;;;;;7.90;7.30;;;;;;;-6.57;100.00;99966.47;4190105;28;20208;-52
2024/01/20 07:22:31;;;;;;;5.80;5.40;;;;;;;-6.71;100.00;99974.56;4187963;28;20284;-52
2024/01/20 07:24:33;;;;;;;9.40;8.80;;;;;;;-6.64;100.00;99978.50;4189349;28;20211;-51
2024/01/20 07:26:35;;;;;;;7.70;7.20;;;;;;;-6.35;100.00;99985.28;4191957;28;20203;-53
2024/01/20 07:28:36;;;;;;;6.97;6.60;;;;;;;-6.50;100.00;99981.06;4191005;28;20249;-52
2024/01/20 07:30:38;;;;;;;6.10;5.70;;;;;;;-6.48;100.00;99988.94;4191777;28;20207;-52
2024/01/20 07:32:40;;;;;;;6.93;6.50;;;;;;;-6.27;100.00;99980.28;4192490;28;20250;-54
2024/01/20 07:34:42;;;;;;;7.53;7.03;;;;;;;-6.24;100.00;99984.56;4187407;28;20242;-52
2024/01/20 07:36:44;;;;;;;8.37;4.67;;;;;;;-6.25;100.00;99991.66;4185366;28;20212;-54
2024/01/20 07:38:46;;;;;;;5.37;5.10;;;;;;;-6.21;100.00;99995.84;4191179;28;20234;-51
2024/01/20 07:40:47;;;;;;;7.60;7.00;;;;;;;-6.35;100.00;99981.78;4184921;28;20211;-52
2024/01/20 07:42:49;;;;;;;6.97;6.57;;;;;;;-6.23;100.00;99984.41;4195535;28;20765;-53
2024/01/20 07:44:51;;;;;;;8.17;7.57;;;;;;;-6.14;100.00;99988.25;4180859;28;22591;-54
2024/01/20 07:46:52;;;;;;;8.57;7.97;;;;;;;-6.14;100.00;99994.44;4179163;28;20212;-54
2024/01/20 07:48:54;;;;;;;16.90;7.80;;;;;;;-6.05;100.00;99998.22;4184661;28;20211;-54
2024/01/20 07:50:56;;;;;;;7.53;6.97;;;;;;;-6.03;100.00;99991.81;4179802;28;20237;-55
2024/01/20 07:52:58;;;;;;;8.07;7.67;;;;;;;-6.04;100.00;99990.13;4180676;28;20234;-52
2024/01/20 07:54:59;;;;;;;6.97;6.67;;;;;;;-6.61;100.00;99983.63;4181218;28;20215;-52
2024/01/20 07:57:01;;;;;;;8.10;7.73;;;;;;;-6.70;100.00;99978.94;4184769;28;20216;-56
2024/01/20 07:59:04;;;;;;;7.93;7.43;;;;;;;-6.74;100.00;99981.91;4197381;28;20214;-53
2024/01/20 08:01:05;;;;;;;5.87;5.50;;;;;;;-6.75;100.00;99983.72;4184248;28;20207;-50
2024/01/20 08:03:07;;;;;;;8.87;8.37;;;;;;;-6.71;100.00;99995.84;4182886;28;20227;-52
2024/01/20 08:05:09;;;;;;;6.40;5.43;;;;;;;-6.53;100.00;100007.03;4177898;28;20207;-51
2024/01/20 08:07:11;;;;;;;9.07;8.33;;;;;;;-6.58;100.00;100007.34;4179173;28;20728;-53
2024/01/20 08:09:13;;;;;;;5.10;4.70;;;;;;;-6.82;100.00;100005.53;4199846;28;20264;-52
2024/01/20 08:11:15;;;;;;;9.63;6.63;;;;;;;-6.97;100.00;100006.59;4183951;28;20266;-52
2024/01/20 08:13:20;;;;;;;6.93;6.57;;;;;;;-6.68;100.00;100013.41;4185440;28;20207;-52
2024/01/20 08:15:23;;;;;;;6.63;6.33;;;;;;;-6.77;100.00;100014.91;4186768;28;20211;-56
2024/01/20 08:17:25;;;;;;;8.40;7.77;;;;;;;-6.60;100.00;100022.59;4182013;28;20282;-52
2024/01/20 08:19:26;;;;;;;8.67;8.07;;;;;;;-6.79;100.00;100022.16;4187061;28;20216;-52
2024/01/20 08:21:28;;;;;;;8.73;8.07;;;;;;;-6.52;100.00;100020.25;4182414;28;20204;-54
2024/01/20 08:23:30;;;;;;;8.30;7.70;;;;;;;-6.28;100.00;100007.84;4170710;28;20734;-52
2024/01/20 08:25:32;;;;;;;6.47;6.10;;;;;;;-6.20;100.00;100021.50;4182876;28;20207;-55
2024/01/20 08:27:33;;;;;;;8.10;7.47;;;;;;;-6.18;100.00;100024.88;4187430;28;20207;-52
2024/01/20 08:29:35;;;;;;;9.53;8.67;;;;;;;-6.02;100.00;100036.16;4181865;28;20203;-54
2024/01/20 08:31:37;;;;;;;15.33;9.00;;;;;;;-5.89;100.00;100036.13;4199041;28;20565;-55
2024/01/20 08:33:39;;;;;;;7.30;6.63;;;;;;;-5.79;100.00;100043.31;4199156;28;20211;-52
2024/01/20 08:35:41;;;;;;;8.00;7.60;;;;;;;-5.83;100.00;100041.03;4186298;28;20208;-52
2024/01/20 08:37:43;;;;;;;9.17;8.37;;;;;;;-5.70;100.00;100042.63;4184441;28;20235;-52
2024/01/20 08:39:45;;;;;;;8.40;7.30;;;;;;;-6.26;100.00;100042.34;4189086;28;20235;-53
2024/01/20 08:41:47;;;;;;;6.97;6.53;;;;;;;-5.96;100.00;100045.53;4186196;28;20242;-54
2024/01/20 08:43:48;;;;;;;9.50;8.73;;;;;;;-5.87;100.00;100045.72;4185845;28;20772;-52
2024/01/20 08:45:51;;;;;;;8.33;7.00;;;;;;;-5.98;100.00;100048.28;4182251;28;20208;-55
2024/01/20 08:47:52;;;;;;;9.90;8.97;;;;;;;-6.17;100.00;100053.22;4196910;28;20203;-52
2024/01/20 08:49:54;;;;;;;6.47;6.07;;;;;;;-5.89;100.00;100058.28;4200705;28;20720;-52
2024/01/20 08:51:56;;;;;;;14.10;9.20;;;;;;;-6.01;100.00;100050.31;4185001;28;20231;-54
2024/01/20 08:53:58;;;;;;;6.60;5.97;;;;;;;-5.92;100.00;100058.50;4186856;28;20223;-54
2024/01/20 08:56:00;;;;;;;7.43;6.93;;;;;;;-6.28;100.00;100050.44;4199780;28;20302;-53
2024/01/20 08:58:02;;;;;;;6.57;6.27;;;;;;;-6.07;100.00;100050.75;4198260;28;20230;-54
2024/01/20 09:00:05;;;;;;;8.27;7.73;;;;;;;-5.94;100.00;100060.44;4183793;28;20286;-52
2024/01/20 09:02:07;;;;;;;9.20;8.43;;;;;;;-5.96;100.00;100057.03;4182196;28;20251;-52
2024/01/20 09:04:09;;;;;;;8.37;7.97;;;;;;;-5.92;100.00;100055.84;4180894;28;20208;-54
2024/01/20 09:06:12;;;;;;;7.50;6.87;;;;;;;-6.03;100.00;100063.75;4168944;28;20208;-55
2024/01/20 09:08:14;;;;;;;9.33;8.67;;;;;;;-6.01;100.00;100064.50;4184957;28;20577;-54
2024/01/20 09:10:16;;;;;;;9.57;8.67;;;;;;;-5.97;100.00;100062.47;4183185;28;20624;-56
2024/01/20 09:12:17;;;;;;;13.87;8.83;;;;;;;-5.77;100.00;100060.03;4187080;28;20300;-54
2024/01/20 09:14:19;;;;;;;8.17;7.67;;;;;;;-5.93;100.00;100067.47;4184266;28;20211;-52
2024/01/20 09:16:21;;;;;;;8.57;8.07;;;;;;;-5.61;100.00;100073.97;4171988;28;20212;-54
2024/01/20 09:18:23;;;;;;;12.20;10.37;;;;;;;-5.42;100.00;100073.47;4181602;28;21011;-57
2024/01/20 09:20:26;;;;;;;6.60;5.73;;;;;;;-5.52;100.00;100083.97;4188480;28;20212;-52
2024/01/20 09:22:28;;;;;;;8.10;7.57;;;;;;;-5.84;100.00;100085.47;4183384;28;20231;-51
2024/01/20 09:24:29;;;;;;;9.00;7.17;;;;;;;-5.85;100.00;100070.44;4182737;28;20214;-53